Aneta, North Dakota
Current Conditions -  °F | °C
As of 8:58 AM on Saturday 25 Oct 2014 (Local Time) from KRDR Reporting Station
Clear Clear  
Wind Chill: 38°   Ceiling: Unl
Heat Index: 43°   Visibility: 10mi
Dew Point: 32°   Wind: 9mph
Humidity: 65%   Direction: 300°WNW
Pressure: 30.06"   Gusts: NA
Location:  47.68°N, 97.99°W
Report Text: KRDR 251358Z AUTO 30008KT 10SM CLR 06/00 A3006 RMK AO2 SLP189 T00630001
Loading
Personal Weather Stations






























Interactive Weather Map
Tropical Storm Tracking
New forecast layout! Learn more

10-Day Weather Forecast

Advertisements
Track Severe Weather on mobile